sensor_id;sensor_type;location;lat;lon;timestamp;temperature;humidity
32614;DHT22;19031;51.400;6.770;2023-07-24T00:00:21;18.40;99.90
32614;DHT22;19031;51.400;6.770;2023-07-24T00:02:47;18.50;99.90
32614;DHT22;19031;51.400;6.770;2023-07-24T00:05:13;18.50;99.90
32614;DHT22;19031;51.400;6.770;2023-07-24T00:07:39;18.50;99.90
32614;DHT22;19031;51.400;6.770;2023-07-24T00:10:04;18.50;99.90
32614;DHT22;19031;51.400;6.770;2023-07-24T00:12:30;18.50;99.90
32614;DHT22;19031;51.400;6.770;2023-07-24T00:14:57;18.50;99.90
32614;DHT22;19031;51.400;6.770;2023-07-24T00:17:22;18.40;99.90
32614;DHT22;19031;51.400;6.770;2023-07-24T00:19:48;18.40;99.90
32614;DHT22;19031;51.400;6.770;2023-07-24T00:22:14;18.40;99.90
32614;DHT22;19031;51.400;6.770;2023-07-24T00:24:40;18.40;99.90
32614;DHT22;19031;51.400;6.770;2023-07-24T00:27:05;18.40;99.90
32614;DHT22;19031;51.400;6.770;2023-07-24T00:29:31;18.40;99.90
32614;DHT22;19031;51.400;6.770;2023-07-24T00:31:57;18.30;99.90
32614;DHT22;19031;51.400;6.770;2023-07-24T00:34:22;18.30;99.90
32614;DHT22;19031;51.400;6.770;2023-07-24T00:36:48;18.30;99.90
32614;DHT22;19031;51.400;6.770;2023-07-24T00:39:16;18.30;99.90
32614;DHT22;19031;51.400;6.770;2023-07-24T00:41:42;18.30;99.90
32614;DHT22;19031;51.400;6.770;2023-07-24T00:44:08;18.20;99.90
32614;DHT22;19031;51.400;6.770;2023-07-24T00:46:35;18.20;99.90
32614;DHT22;19031;51.400;6.770;2023-07-24T00:49:02;18.20;99.90
32614;DHT22;19031;51.400;6.770;2023-07-24T00:51:28;18.10;99.90
32614;DHT22;19031;51.400;6.770;2023-07-24T00:54:00;18.00;99.90
32614;DHT22;19031;51.400;6.770;2023-07-24T00:56:27;18.00;99.90
32614;DHT22;19031;51.400;6.770;2023-07-24T00:58:54;17.90;99.90
32614;DHT22;19031;51.400;6.770;2023-07-24T01:01:21;17.90;99.90
32614;DHT22;19031;51.400;6.770;2023-07-24T01:03:47;17.90;99.90
32614;DHT22;19031;51.400;6.770;2023-07-24T01:06:14;17.80;99.90
32614;DHT22;19031;51.400;6.770;2023-07-24T01:08:39;17.80;99.90
32614;DHT22;19031;51.400;6.770;2023-07-24T01:13:42;17.70;99.90
32614;DHT22;19031;51.400;6.770;2023-07-24T01:16:14;17.70;99.90
32614;DHT22;19031;51.400;6.770;2023-07-24T01:18:41;17.70;99.90
32614;DHT22;19031;51.400;6.770;2023-07-24T01:21:09;17.80;99.90
32614;DHT22;19031;51.400;6.770;2023-07-24T01:26:21;17.70;99.90
32614;DHT22;19031;51.400;6.770;2023-07-24T01:28:47;17.70;99.90
32614;DHT22;19031;51.400;6.770;2023-07-24T01:31:15;17.60;99.90
32614;DHT22;19031;51.400;6.770;2023-07-24T01:33:43;17.60;99.90
32614;DHT22;19031;51.400;6.770;2023-07-24T01:36:09;17.70;99.90
32614;DHT22;19031;51.400;6.770;2023-07-24T01:38:42;17.60;99.90
32614;DHT22;19031;51.400;6.770;2023-07-24T01:41:09;17.60;99.90
32614;DHT22;19031;51.400;6.770;2023-07-24T01:43:35;17.60;99.90
32614;DHT22;19031;51.400;6.770;2023-07-24T01:46:01;17.70;99.90
32614;DHT22;19031;51.400;6.770;2023-07-24T01:48:26;17.60;99.90
32614;DHT22;19031;51.400;6.770;2023-07-24T01:50:53;17.60;99.90
32614;DHT22;19031;51.400;6.770;2023-07-24T01:53:19;17.60;99.90
32614;DHT22;19031;51.400;6.770;2023-07-24T01:55:45;17.60;99.90
32614;DHT22;19031;51.400;6.770;2023-07-24T01:58:11;17.60;99.90
32614;DHT22;19031;51.400;6.770;2023-07-24T02:00:36;17.60;99.90
32614;DHT22;19031;51.400;6.770;2023-07-24T02:03:02;17.60;99.90
32614;DHT22;19031;51.400;6.770;2023-07-24T02:05:27;17.60;99.90
32614;DHT22;19031;51.400;6.770;2023-07-24T02:07:54;17.60;99.90
32614;DHT22;19031;51.400;6.770;2023-07-24T02:10:20;17.60;99.90
32614;DHT22;19031;51.400;6.770;2023-07-24T02:12:45;17.70;99.90
32614;DHT22;19031;51.400;6.770;2023-07-24T02:15:11;17.70;99.90
32614;DHT22;19031;51.400;6.770;2023-07-24T02:17:37;17.80;99.90
32614;DHT22;19031;51.400;6.770;2023-07-24T02:20:09;17.80;99.90
32614;DHT22;19031;51.400;6.770;2023-07-24T02:22:35;17.80;99.90
32614;DHT22;19031;51.400;6.770;2023-07-24T02:25:01;17.90;99.90
32614;DHT22;19031;51.400;6.770;2023-07-24T02:27:28;17.90;99.90
32614;DHT22;19031;51.400;6.770;2023-07-24T02:29:56;17.90;99.90
32614;DHT22;19031;51.400;6.770;2023-07-24T02:32:23;17.90;99.90
32614;DHT22;19031;51.400;6.770;2023-07-24T02:34:50;17.90;99.90
32614;DHT22;19031;51.400;6.770;2023-07-24T02:37:16;17.90;99.90
32614;DHT22;19031;51.400;6.770;2023-07-24T02:39:42;18.00;99.90
32614;DHT22;19031;51.400;6.770;2023-07-24T02:42:08;18.00;99.90
32614;DHT22;19031;51.400;6.770;2023-07-24T02:44:35;18.00;99.90
32614;DHT22;19031;51.400;6.770;2023-07-24T02:47:00;18.00;99.90
32614;DHT22;19031;51.400;6.770;2023-07-24T02:49:26;18.00;99.90
32614;DHT22;19031;51.400;6.770;2023-07-24T02:51:51;18.10;99.90
32614;DHT22;19031;51.400;6.770;2023-07-24T02:54:17;18.10;99.90
32614;DHT22;19031;51.400;6.770;2023-07-24T02:56:43;18.20;99.90
32614;DHT22;19031;51.400;6.770;2023-07-24T02:59:09;18.10;99.90
32614;DHT22;19031;51.400;6.770;2023-07-24T03:01:35;18.20;99.90
32614;DHT22;19031;51.400;6.770;2023-07-24T03:04:02;18.20;99.90
32614;DHT22;19031;51.400;6.770;2023-07-24T03:06:27;18.20;99.90
32614;DHT22;19031;51.400;6.770;2023-07-24T03:08:53;18.20;99.90
32614;DHT22;19031;51.400;6.770;2023-07-24T03:11:18;18.20;99.90
32614;DHT22;19031;51.400;6.770;2023-07-24T03:13:44;18.20;99.90
32614;DHT22;19031;51.400;6.770;2023-07-24T03:16:10;18.30;99.90
32614;DHT22;19031;51.400;6.770;2023-07-24T03:18:35;18.30;99.90
32614;DHT22;19031;51.400;6.770;2023-07-24T03:21:01;18.30;99.90
32614;DHT22;19031;51.400;6.770;2023-07-24T03:23:26;18.20;99.90
32614;DHT22;19031;51.400;6.770;2023-07-24T03:25:52;18.30;99.90
32614;DHT22;19031;51.400;6.770;2023-07-24T03:28:18;18.30;99.90
32614;DHT22;19031;51.400;6.770;2023-07-24T03:30:43;18.30;99.90
32614;DHT22;19031;51.400;6.770;2023-07-24T03:33:12;18.30;99.90
32614;DHT22;19031;51.400;6.770;2023-07-24T03:35:38;18.40;99.90
32614;DHT22;19031;51.400;6.770;2023-07-24T03:38:05;18.30;99.90
32614;DHT22;19031;51.400;6.770;2023-07-24T03:40:31;18.30;99.90
32614;DHT22;19031;51.400;6.770;2023-07-24T03:42:56;18.30;99.90
32614;DHT22;19031;51.400;6.770;2023-07-24T03:45:22;18.30;99.90
32614;DHT22;19031;51.400;6.770;2023-07-24T03:47:48;18.30;99.90
32614;DHT22;19031;51.400;6.770;2023-07-24T03:50:13;18.30;99.90
32614;DHT22;19031;51.400;6.770;2023-07-24T03:52:39;18.30;99.90
32614;DHT22;19031;51.400;6.770;2023-07-24T03:55:05;18.40;99.90
32614;DHT22;19031;51.400;6.770;2023-07-24T03:57:31;18.30;99.90
32614;DHT22;19031;51.400;6.770;2023-07-24T03:59:56;18.30;99.90
32614;DHT22;19031;51.400;6.770;2023-07-24T04:02:23;18.30;99.90
32614;DHT22;19031;51.400;6.770;2023-07-24T04:04:48;18.30;99.90
32614;DHT22;19031;51.400;6.770;2023-07-24T04:07:14;18.40;99.90
32614;DHT22;19031;51.400;6.770;2023-07-24T04:09:40;18.40;99.90
32614;DHT22;19031;51.400;6.770;2023-07-24T04:12:05;18.40;99.90
32614;DHT22;19031;51.400;6.770;2023-07-24T04:14:31;18.50;99.90
32614;DHT22;19031;51.400;6.770;2023-07-24T04:16:57;18.30;99.90
32614;DHT22;19031;51.400;6.770;2023-07-24T04:19:22;18.40;99.90
32614;DHT22;19031;51.400;6.770;2023-07-24T04:21:48;18.40;99.90
32614;DHT22;19031;51.400;6.770;2023-07-24T04:24:14;18.30;99.90
32614;DHT22;19031;51.400;6.770;2023-07-24T04:26:39;18.30;99.90
32614;DHT22;19031;51.400;6.770;2023-07-24T04:29:05;18.30;99.90
32614;DHT22;19031;51.400;6.770;2023-07-24T04:31:31;18.30;99.90
32614;DHT22;19031;51.400;6.770;2023-07-24T04:33:57;18.40;99.90
32614;DHT22;19031;51.400;6.770;2023-07-24T04:36:22;18.30;99.90
32614;DHT22;19031;51.400;6.770;2023-07-24T04:38:48;18.30;99.90
32614;DHT22;19031;51.400;6.770;2023-07-24T04:41:14;18.30;99.90
32614;DHT22;19031;51.400;6.770;2023-07-24T04:43:39;18.20;99.90
32614;DHT22;19031;51.400;6.770;2023-07-24T04:46:05;18.30;99.90
32614;DHT22;19031;51.400;6.770;2023-07-24T04:48:31;18.30;99.90
32614;DHT22;19031;51.400;6.770;2023-07-24T04:50:57;18.30;99.90
32614;DHT22;19031;51.400;6.770;2023-07-24T04:53:23;18.30;99.90
32614;DHT22;19031;51.400;6.770;2023-07-24T04:55:48;18.20;99.90
32614;DHT22;19031;51.400;6.770;2023-07-24T04:58:14;18.30;99.90
32614;DHT22;19031;51.400;6.770;2023-07-24T05:00:40;18.40;99.90
32614;DHT22;19031;51.400;6.770;2023-07-24T05:03:06;18.30;99.90
32614;DHT22;19031;51.400;6.770;2023-07-24T05:05:37;18.30;99.90
32614;DHT22;19031;51.400;6.770;2023-07-24T05:08:03;18.30;99.90
32614;DHT22;19031;51.400;6.770;2023-07-24T05:10:29;18.30;99.90
32614;DHT22;19031;51.400;6.770;2023-07-24T05:12:54;18.30;99.90
32614;DHT22;19031;51.400;6.770;2023-07-24T05:15:22;18.30;99.90
32614;DHT22;19031;51.400;6.770;2023-07-24T05:17:48;18.40;99.90
32614;DHT22;19031;51.400;6.770;2023-07-24T05:20:14;18.40;99.90
32614;DHT22;19031;51.400;6.770;2023-07-24T05:22:39;18.40;99.90
32614;DHT22;19031;51.400;6.770;2023-07-24T05:25:05;18.40;99.90
32614;DHT22;19031;51.400;6.770;2023-07-24T05:27:31;18.40;99.90
32614;DHT22;19031;51.400;6.770;2023-07-24T05:29:56;18.30;99.90
32614;DHT22;19031;51.400;6.770;2023-07-24T05:32:22;18.40;99.90
32614;DHT22;19031;51.400;6.770;2023-07-24T05:34:48;18.40;99.90
32614;DHT22;19031;51.400;6.770;2023-07-24T05:37:14;18.50;99.90
32614;DHT22;19031;51.400;6.770;2023-07-24T05:39:40;18.50;99.90
32614;DHT22;19031;51.400;6.770;2023-07-24T05:42:05;18.50;99.90
32614;DHT22;19031;51.400;6.770;2023-07-24T05:44:31;18.60;99.90
32614;DHT22;19031;51.400;6.770;2023-07-24T05:46:58;18.60;99.90
32614;DHT22;19031;51.400;6.770;2023-07-24T05:49:24;18.70;99.90
32614;DHT22;19031;51.400;6.770;2023-07-24T05:51:49;18.80;99.90
32614;DHT22;19031;51.400;6.770;2023-07-24T05:54:15;18.90;99.90
32614;DHT22;19031;51.400;6.770;2023-07-24T05:56:40;19.00;99.90
32614;DHT22;19031;51.400;6.770;2023-07-24T05:59:06;19.10;99.90
32614;DHT22;19031;51.400;6.770;2023-07-24T06:01:32;19.30;99.90
32614;DHT22;19031;51.400;6.770;2023-07-24T06:03:57;19.30;99.90
32614;DHT22;19031;51.400;6.770;2023-07-24T06:06:23;19.30;99.90
32614;DHT22;19031;51.400;6.770;2023-07-24T06:08:49;19.30;99.90
32614;DHT22;19031;51.400;6.770;2023-07-24T06:11:16;19.30;99.90
32614;DHT22;19031;51.400;6.770;2023-07-24T06:13:42;19.40;99.90
32614;DHT22;19031;51.400;6.770;2023-07-24T06:16:07;19.40;99.90
32614;DHT22;19031;51.400;6.770;2023-07-24T06:18:34;19.40;99.90
32614;DHT22;19031;51.400;6.770;2023-07-24T06:20:59;19.30;99.90
32614;DHT22;19031;51.400;6.770;2023-07-24T06:23:25;19.40;99.90
32614;DHT22;19031;51.400;6.770;2023-07-24T06:25:51;19.40;99.90
32614;DHT22;19031;51.400;6.770;2023-07-24T06:28:18;19.50;99.90
32614;DHT22;19031;51.400;6.770;2023-07-24T06:30:44;19.50;99.90
32614;DHT22;19031;51.400;6.770;2023-07-24T06:33:09;19.60;99.90
32614;DHT22;19031;51.400;6.770;2023-07-24T06:35:35;19.60;99.90
32614;DHT22;19031;51.400;6.770;2023-07-24T06:38:01;19.50;99.90
32614;DHT22;19031;51.400;6.770;2023-07-24T06:40:26;19.40;99.90
32614;DHT22;19031;51.400;6.770;2023-07-24T06:42:52;19.40;99.90
32614;DHT22;19031;51.400;6.770;2023-07-24T06:45:18;19.40;99.90
32614;DHT22;19031;51.400;6.770;2023-07-24T06:47:44;19.50;99.90
32614;DHT22;19031;51.400;6.770;2023-07-24T06:50:09;19.60;99.90
32614;DHT22;19031;51.400;6.770;2023-07-24T06:52:35;19.60;99.90
32614;DHT22;19031;51.400;6.770;2023-07-24T06:55:01;19.60;99.90
32614;DHT22;19031;51.400;6.770;2023-07-24T06:57:27;19.80;99.90
32614;DHT22;19031;51.400;6.770;2023-07-24T06:59:53;19.90;99.90
32614;DHT22;19031;51.400;6.770;2023-07-24T07:02:18;19.90;99.90
32614;DHT22;19031;51.400;6.770;2023-07-24T07:04:44;19.90;99.90
32614;DHT22;19031;51.400;6.770;2023-07-24T07:07:09;19.90;99.90
32614;DHT22;19031;51.400;6.770;2023-07-24T07:09:35;19.90;99.90
32614;DHT22;19031;51.400;6.770;2023-07-24T07:12:01;19.70;99.90
32614;DHT22;19031;51.400;6.770;2023-07-24T07:14:26;19.70;99.90
32614;DHT22;19031;51.400;6.770;2023-07-24T07:16:52;19.70;99.90
32614;DHT22;19031;51.400;6.770;2023-07-24T07:19:18;19.80;99.90
32614;DHT22;19031;51.400;6.770;2023-07-24T07:21:43;19.60;99.90
32614;DHT22;19031;51.400;6.770;2023-07-24T07:24:09;19.70;99.90
32614;DHT22;19031;51.400;6.770;2023-07-24T07:26:35;19.70;99.90
32614;DHT22;19031;51.400;6.770;2023-07-24T07:29:00;19.70;99.90
32614;DHT22;19031;51.400;6.770;2023-07-24T07:31:26;19.70;99.90
32614;DHT22;19031;51.400;6.770;2023-07-24T07:33:52;19.70;99.90
32614;DHT22;19031;51.400;6.770;2023-07-24T07:36:18;19.60;99.90
32614;DHT22;19031;51.400;6.770;2023-07-24T07:38:44;19.70;99.90
32614;DHT22;19031;51.400;6.770;2023-07-24T07:41:09;19.60;99.90
32614;DHT22;19031;51.400;6.770;2023-07-24T07:43:35;19.70;99.90
32614;DHT22;19031;51.400;6.770;2023-07-24T07:46:02;19.60;99.90
32614;DHT22;19031;51.400;6.770;2023-07-24T07:48:28;19.60;99.90
32614;DHT22;19031;51.400;6.770;2023-07-24T07:50:54;19.40;99.90
32614;DHT22;19031;51.400;6.770;2023-07-24T07:53:20;19.40;99.90
32614;DHT22;19031;51.400;6.770;2023-07-24T07:55:45;19.30;99.90
32614;DHT22;19031;51.400;6.770;2023-07-24T07:58:11;19.20;99.90
32614;DHT22;19031;51.400;6.770;2023-07-24T08:00:37;19.20;99.90
32614;DHT22;19031;51.400;6.770;2023-07-24T08:03:05;19.20;99.90
32614;DHT22;19031;51.400;6.770;2023-07-24T08:05:30;19.30;99.90
32614;DHT22;19031;51.400;6.770;2023-07-24T08:07:57;19.40;99.90
32614;DHT22;19031;51.400;6.770;2023-07-24T08:10:23;19.60;99.90
32614;DHT22;19031;51.400;6.770;2023-07-24T08:12:48;19.80;99.90
32614;DHT22;19031;51.400;6.770;2023-07-24T08:15:14;19.80;99.90
32614;DHT22;19031;51.400;6.770;2023-07-24T08:17:40;20.00;99.90
32614;DHT22;19031;51.400;6.770;2023-07-24T08:20:06;20.20;99.90
32614;DHT22;19031;51.400;6.770;2023-07-24T08:22:32;20.30;99.90
32614;DHT22;19031;51.400;6.770;2023-07-24T08:24:57;20.50;99.90
32614;DHT22;19031;51.400;6.770;2023-07-24T08:27:23;20.70;99.90
32614;DHT22;19031;51.400;6.770;2023-07-24T08:29:51;20.60;99.90
32614;DHT22;19031;51.400;6.770;2023-07-24T08:32:18;20.50;99.90
32614;DHT22;19031;51.400;6.770;2023-07-24T08:34:44;20.40;99.90
32614;DHT22;19031;51.400;6.770;2023-07-24T08:37:13;20.30;99.90
32614;DHT22;19031;51.400;6.770;2023-07-24T08:39:39;20.30;99.90
32614;DHT22;19031;51.400;6.770;2023-07-24T08:42:12;20.60;99.90
32614;DHT22;19031;51.400;6.770;2023-07-24T08:44:38;20.80;99.90
32614;DHT22;19031;51.400;6.770;2023-07-24T08:47:04;21.00;99.90
32614;DHT22;19031;51.400;6.770;2023-07-24T08:49:32;21.30;99.90
32614;DHT22;19031;51.400;6.770;2023-07-24T08:51:58;21.20;99.90
32614;DHT22;19031;51.400;6.770;2023-07-24T08:54:26;21.30;99.90
32614;DHT22;19031;51.400;6.770;2023-07-24T08:56:52;21.60;99.90
32614;DHT22;19031;51.400;6.770;2023-07-24T08:59:19;21.80;99.90
32614;DHT22;19031;51.400;6.770;2023-07-24T09:01:44;21.60;99.90
32614;DHT22;19031;51.400;6.770;2023-07-24T09:04:10;21.60;99.90
32614;DHT22;19031;51.400;6.770;2023-07-24T09:06:36;21.50;99.90
32614;DHT22;19031;51.400;6.770;2023-07-24T09:09:02;21.40;99.90
32614;DHT22;19031;51.400;6.770;2023-07-24T09:11:49;21.50;99.90
32614;DHT22;19031;51.400;6.770;2023-07-24T09:14:25;21.40;99.90
32614;DHT22;19031;51.400;6.770;2023-07-24T09:17:08;21.30;99.90
32614;DHT22;19031;51.400;6.770;2023-07-24T09:19:34;21.20;99.90
32614;DHT22;19031;51.400;6.770;2023-07-24T09:22:14;21.20;99.90
32614;DHT22;19031;51.400;6.770;2023-07-24T09:27:16;21.20;99.90
32614;DHT22;19031;51.400;6.770;2023-07-24T09:29:43;21.10;99.90
32614;DHT22;19031;51.400;6.770;2023-07-24T09:32:22;21.30;99.90
32614;DHT22;19031;51.400;6.770;2023-07-24T09:34:49;21.30;99.90
32614;DHT22;19031;51.400;6.770;2023-07-24T09:37:32;21.20;99.90
32614;DHT22;19031;51.400;6.770;2023-07-24T09:39:58;21.40;99.90
32614;DHT22;19031;51.400;6.770;2023-07-24T09:42:42;21.50;99.90
32614;DHT22;19031;51.400;6.770;2023-07-24T09:45:08;21.80;99.90
32614;DHT22;19031;51.400;6.770;2023-07-24T09:47:34;22.00;99.90
32614;DHT22;19031;51.400;6.770;2023-07-24T09:50:03;22.10;99.90
32614;DHT22;19031;51.400;6.770;2023-07-24T09:52:30;22.20;99.90
32614;DHT22;19031;51.400;6.770;2023-07-24T09:55:15;22.40;99.90
32614;DHT22;19031;51.400;6.770;2023-07-24T09:57:44;22.40;99.90
32614;DHT22;19031;51.400;6.770;2023-07-24T10:00:12;22.40;99.90
32614;DHT22;19031;51.400;6.770;2023-07-24T10:02:38;22.50;99.90
32614;DHT22;19031;51.400;6.770;2023-07-24T10:05:05;22.50;99.90
32614;DHT22;19031;51.400;6.770;2023-07-24T10:07:31;22.60;99.90
32614;DHT22;19031;51.400;6.770;2023-07-24T10:09:57;22.80;99.90
32614;DHT22;19031;51.400;6.770;2023-07-24T10:12:24;23.10;99.90
32614;DHT22;19031;51.400;6.770;2023-07-24T10:14:54;23.60;99.90
32614;DHT22;19031;51.400;6.770;2023-07-24T10:17:37;24.10;99.90
32614;DHT22;19031;51.400;6.770;2023-07-24T10:20:08;24.10;99.90
32614;DHT22;19031;51.400;6.770;2023-07-24T10:22:40;24.30;99.90
32614;DHT22;19031;51.400;6.770;2023-07-24T10:25:07;24.40;99.90
32614;DHT22;19031;51.400;6.770;2023-07-24T10:27:39;24.30;99.90
32614;DHT22;19031;51.400;6.770;2023-07-24T10:30:05;24.30;99.90
32614;DHT22;19031;51.400;6.770;2023-07-24T10:32:32;24.10;99.90
32614;DHT22;19031;51.400;6.770;2023-07-24T10:35:05;24.00;99.90
32614;DHT22;19031;51.400;6.770;2023-07-24T10:37:33;23.80;99.90
32614;DHT22;19031;51.400;6.770;2023-07-24T10:40:02;23.50;99.90
32614;DHT22;19031;51.400;6.770;2023-07-24T10:42:30;23.20;99.90
32614;DHT22;19031;51.400;6.770;2023-07-24T10:45:06;22.90;99.90
32614;DHT22;19031;51.400;6.770;2023-07-24T10:47:33;22.70;99.90
32614;DHT22;19031;51.400;6.770;2023-07-24T10:49:58;22.60;99.90
32614;DHT22;19031;51.400;6.770;2023-07-24T10:52:33;22.50;99.90
32614;DHT22;19031;51.400;6.770;2023-07-24T10:55:05;22.50;99.90
32614;DHT22;19031;51.400;6.770;2023-07-24T10:57:31;22.30;99.90
32614;DHT22;19031;51.400;6.770;2023-07-24T10:59:57;22.20;99.90
32614;DHT22;19031;51.400;6.770;2023-07-24T11:02:23;22.00;99.90
32614;DHT22;19031;51.400;6.770;2023-07-24T11:04:49;21.80;99.90
32614;DHT22;19031;51.400;6.770;2023-07-24T11:07:15;21.70;99.90
32614;DHT22;19031;51.400;6.770;2023-07-24T11:09:41;21.50;99.90
32614;DHT22;19031;51.400;6.770;2023-07-24T11:12:13;21.20;99.90
32614;DHT22;19031;51.400;6.770;2023-07-24T11:14:51;21.20;99.90
32614;DHT22;19031;51.400;6.770;2023-07-24T11:17:19;20.90;99.90
32614;DHT22;19031;51.400;6.770;2023-07-24T11:19:45;20.50;99.90
32614;DHT22;19031;51.400;6.770;2023-07-24T11:22:11;20.60;99.90
32614;DHT22;19031;51.400;6.770;2023-07-24T11:24:47;20.40;99.90
32614;DHT22;19031;51.400;6.770;2023-07-24T11:27:14;20.10;99.90
32614;DHT22;19031;51.400;6.770;2023-07-24T11:29:41;19.90;99.90
32614;DHT22;19031;51.400;6.770;2023-07-24T11:32:07;19.70;99.90
32614;DHT22;19031;51.400;6.770;2023-07-24T11:34:34;19.60;99.90
32614;DHT22;19031;51.400;6.770;2023-07-24T11:37:00;19.50;99.90
32614;DHT22;19031;51.400;6.770;2023-07-24T11:39:26;19.50;99.90
32614;DHT22;19031;51.400;6.770;2023-07-24T11:41:52;19.50;99.90
32614;DHT22;19031;51.400;6.770;2023-07-24T11:44:25;19.40;99.90
32614;DHT22;19031;51.400;6.770;2023-07-24T11:46:51;19.30;99.90
32614;DHT22;19031;51.400;6.770;2023-07-24T11:49:22;19.30;99.90
32614;DHT22;19031;51.400;6.770;2023-07-24T11:51:47;19.30;99.90
32614;DHT22;19031;51.400;6.770;2023-07-24T11:54:15;19.40;99.90
32614;DHT22;19031;51.400;6.770;2023-07-24T11:56:40;19.30;99.90
32614;DHT22;19031;51.400;6.770;2023-07-24T11:59:15;19.40;99.90
32614;DHT22;19031;51.400;6.770;2023-07-24T12:01:45;19.50;99.90
32614;DHT22;19031;51.400;6.770;2023-07-24T12:04:11;19.70;99.90
32614;DHT22;19031;51.400;6.770;2023-07-24T12:06:37;20.00;99.90
32614;DHT22;19031;51.400;6.770;2023-07-24T12:09:04;20.40;99.90
32614;DHT22;19031;51.400;6.770;2023-07-24T12:11:31;21.00;99.90
32614;DHT22;19031;51.400;6.770;2023-07-24T12:13:57;21.30;99.90
32614;DHT22;19031;51.400;6.770;2023-07-24T12:16:22;21.70;99.90
32614;DHT22;19031;51.400;6.770;2023-07-24T12:18:48;22.10;99.90
32614;DHT22;19031;51.400;6.770;2023-07-24T12:21:14;22.50;99.90
32614;DHT22;19031;51.400;6.770;2023-07-24T12:23:40;22.70;99.90
32614;DHT22;19031;51.400;6.770;2023-07-24T12:26:05;22.90;99.90
32614;DHT22;19031;51.400;6.770;2023-07-24T12:28:31;22.80;99.90
32614;DHT22;19031;51.400;6.770;2023-07-24T12:30:57;22.40;99.90
32614;DHT22;19031;51.400;6.770;2023-07-24T12:33:22;22.50;99.90
32614;DHT22;19031;51.400;6.770;2023-07-24T12:35:49;22.40;99.90
32614;DHT22;19031;51.400;6.770;2023-07-24T12:38:15;22.10;99.90
32614;DHT22;19031;51.400;6.770;2023-07-24T12:40:41;22.10;99.90
32614;DHT22;19031;51.400;6.770;2023-07-24T12:43:06;21.90;99.90
32614;DHT22;19031;51.400;6.770;2023-07-24T12:45:32;22.00;99.90
32614;DHT22;19031;51.400;6.770;2023-07-24T12:47:58;22.10;99.90
32614;DHT22;19031;51.400;6.770;2023-07-24T12:50:23;22.20;99.90
32614;DHT22;19031;51.400;6.770;2023-07-24T12:52:49;22.40;99.90
32614;DHT22;19031;51.400;6.770;2023-07-24T12:55:15;23.00;99.90
32614;DHT22;19031;51.400;6.770;2023-07-24T12:57:41;23.40;99.90
32614;DHT22;19031;51.400;6.770;2023-07-24T13:00:07;23.80;99.90
32614;DHT22;19031;51.400;6.770;2023-07-24T13:02:34;24.00;99.90
32614;DHT22;19031;51.400;6.770;2023-07-24T13:05:00;24.00;99.90
32614;DHT22;19031;51.400;6.770;2023-07-24T13:07:26;23.80;99.90
32614;DHT22;19031;51.400;6.770;2023-07-24T13:09:51;24.10;99.90
32614;DHT22;19031;51.400;6.770;2023-07-24T13:12:17;24.30;99.90
32614;DHT22;19031;51.400;6.770;2023-07-24T13:14:43;24.40;99.90
32614;DHT22;19031;51.400;6.770;2023-07-24T13:17:12;24.90;99.90
32614;DHT22;19031;51.400;6.770;2023-07-24T13:19:38;25.40;99.90
32614;DHT22;19031;51.400;6.770;2023-07-24T13:22:04;25.80;99.90
32614;DHT22;19031;51.400;6.770;2023-07-24T13:24:30;26.20;99.90
32614;DHT22;19031;51.400;6.770;2023-07-24T13:26:55;26.30;99.90
32614;DHT22;19031;51.400;6.770;2023-07-24T13:29:21;27.00;99.90
32614;DHT22;19031;51.400;6.770;2023-07-24T13:31:46;27.50;99.90
32614;DHT22;19031;51.400;6.770;2023-07-24T13:34:18;28.00;99.90
32614;DHT22;19031;51.400;6.770;2023-07-24T13:36:48;28.50;99.90
32614;DHT22;19031;51.400;6.770;2023-07-24T13:39:13;28.80;99.90
32614;DHT22;19031;51.400;6.770;2023-07-24T13:41:39;28.60;99.90
32614;DHT22;19031;51.400;6.770;2023-07-24T13:44:12;28.20;99.90
32614;DHT22;19031;51.400;6.770;2023-07-24T13:46:38;28.00;99.90
32614;DHT22;19031;51.400;6.770;2023-07-24T13:49:07;27.80;99.90
32614;DHT22;19031;51.400;6.770;2023-07-24T13:51:38;28.30;99.90
32614;DHT22;19031;51.400;6.770;2023-07-24T13:54:04;28.30;99.90
32614;DHT22;19031;51.400;6.770;2023-07-24T13:56:29;28.30;99.90
32614;DHT22;19031;51.400;6.770;2023-07-24T13:59:03;28.40;99.90
32614;DHT22;19031;51.400;6.770;2023-07-24T14:01:28;28.20;99.90
32614;DHT22;19031;51.400;6.770;2023-07-24T14:03:54;28.00;99.90
32614;DHT22;19031;51.400;6.770;2023-07-24T14:06:19;27.40;99.90
32614;DHT22;19031;51.400;6.770;2023-07-24T14:08:47;27.30;99.90
32614;DHT22;19031;51.400;6.770;2023-07-24T14:11:13;27.10;99.90
32614;DHT22;19031;51.400;6.770;2023-07-24T14:13:39;26.70;99.90
32614;DHT22;19031;51.400;6.770;2023-07-24T14:16:04;26.60;99.90
32614;DHT22;19031;51.400;6.770;2023-07-24T14:18:33;26.50;99.90
32614;DHT22;19031;51.400;6.770;2023-07-24T14:20:58;26.50;99.90
32614;DHT22;19031;51.400;6.770;2023-07-24T14:23:24;26.10;99.90
32614;DHT22;19031;51.400;6.770;2023-07-24T14:25:53;25.90;99.90
32614;DHT22;19031;51.400;6.770;2023-07-24T14:28:18;25.80;99.90
32614;DHT22;19031;51.400;6.770;2023-07-24T14:30:44;25.50;99.90
32614;DHT22;19031;51.400;6.770;2023-07-24T14:33:09;24.90;99.90
32614;DHT22;19031;51.400;6.770;2023-07-24T14:35:38;24.40;99.90
32614;DHT22;19031;51.400;6.770;2023-07-24T14:38:03;23.80;99.90
32614;DHT22;19031;51.400;6.770;2023-07-24T14:40:29;23.20;99.90
32614;DHT22;19031;51.400;6.770;2023-07-24T14:42:54;23.00;99.90
32614;DHT22;19031;51.400;6.770;2023-07-24T14:45:23;23.00;99.90
32614;DHT22;19031;51.400;6.770;2023-07-24T14:47:48;23.10;99.90
32614;DHT22;19031;51.400;6.770;2023-07-24T14:50:14;23.50;99.90
32614;DHT22;19031;51.400;6.770;2023-07-24T14:52:39;23.60;99.90
32614;DHT22;19031;51.400;6.770;2023-07-24T14:55:09;23.70;99.90
32614;DHT22;19031;51.400;6.770;2023-07-24T14:57:38;23.90;99.90
32614;DHT22;19031;51.400;6.770;2023-07-24T15:00:08;23.90;99.90
32614;DHT22;19031;51.400;6.770;2023-07-24T15:02:34;24.00;99.90
32614;DHT22;19031;51.400;6.770;2023-07-24T15:04:59;24.10;99.90
32614;DHT22;19031;51.400;6.770;2023-07-24T15:07:25;23.90;99.90
32614;DHT22;19031;51.400;6.770;2023-07-24T15:09:53;24.10;99.90
32614;DHT22;19031;51.400;6.770;2023-07-24T15:12:19;24.10;99.90
32614;DHT22;19031;51.400;6.770;2023-07-24T15:14:44;24.00;99.90
32614;DHT22;19031;51.400;6.770;2023-07-24T15:17:10;24.10;99.90
32614;DHT22;19031;51.400;6.770;2023-07-24T15:19:40;23.90;99.90
32614;DHT22;19031;51.400;6.770;2023-07-24T15:22:06;23.90;99.90
32614;DHT22;19031;51.400;6.770;2023-07-24T15:24:34;23.70;99.90
32614;DHT22;19031;51.400;6.770;2023-07-24T15:27:00;23.90;99.90
32614;DHT22;19031;51.400;6.770;2023-07-24T15:29:30;23.70;99.90
32614;DHT22;19031;51.400;6.770;2023-07-24T15:31:56;23.90;99.90
32614;DHT22;19031;51.400;6.770;2023-07-24T15:34:21;24.20;99.90